Aeroporto :
LOGIN :

Iscrizione | Disclaimer

   EN    FR    IT 

 










Sommario :    VFR   VFR Marginale   IFR   IFR Intensivo   IFR Molto Intensivo
Visibilità : 
Base nubi : 
>= 8 km
>= 3000ft
5 / 8 km
1000 / 3000 ft
1500m / 5 km
500 / 1000 ft
800 / 1500m
200 / 500 ft
< 800m
< 200 ft
Simboli :   Temporali  Nebbia  Neve Forte  Precipitazioni Forti  Vento > 20 kt
SIGMETs :   Varie  Temporali  Ghiacco  Turbolenza  Onda orograficha  Ceneri Vulcaniche






- Altitudine del aeroporto : 324 ft
- Codice IATA : KVB


ESGR - Skovde

ULTIMO METAR :
  • 180050Z AUTO 17008KT 9999 OVC010/// 05/03 Q1006

METARs OBSOLETI :
  • 180020Z AUTO 18008KT 9999 OVC011/// 05/04 Q1006
  • 172350Z AUTO 18009KT 9999 OVC012/// 05/03 Q1006
  • 172320Z AUTO 17010KT 9999 OVC012/// 05/04 Q1007
  • 172250Z AUTO 17007KT 9999 OVC013/// 04/03 Q1007
  • 172220Z AUTO 17006KT 9999 BKN015/// 04/03 Q1007
  • 172150Z AUTO 18005KT 9999 FEW017/// 04/03 Q1008

TAF N/A



MetMap, La meteo Aeronautica in un colpo d'occhio ! - Copyright ORBIFLY Dicembre 2007 - Disclaimer

ORBIFLY MET'MAP TEAM :

Programmazione e sviluppo : Alexandra Zaïnal
Concezione : Baudouin d'Aumeries
Aiuto per la programmazione : Marc-Olivier Méhu
Supporto tecnico e logistico : Manuel Goepfert
Aiuto per la traduzione : Arnaldo La Scala

Contatto : metmap@orbifly.com




FONTI E CREDITI :

   NOAA